Time;durP1;ratioP1;P1;durP2;ratioP2;P2;SDS_P1;SDS_P2;PMS_P1;PMS_P2;Temp;Humidity;BMP_temperature;BMP_pressure;BME280_temperature;BME280_humidity;BME280_pressure;Samples;Min_cycle;Max_cycle;Signal;HPM_P1;HPM_P2
2022/07/25 00:02:04;;;;;;;9.23;6.90;;;;;;;22.30;66.12;100958.78;5012184;28;20120;-92
2022/07/25 00:04:30;;;;;;;7.95;6.78;;;;;;;22.30;64.44;100955.28;5012812;28;20108;-93
2022/07/25 00:06:56;;;;;;;10.45;6.57;;;;;;;22.29;64.91;100954.44;5010552;28;20308;-93
2022/07/25 00:09:21;;;;;;;10.45;7.15;;;;;;;22.29;65.06;100943.72;5012941;28;20034;-92
2022/07/25 00:11:47;;;;;;;11.02;7.07;;;;;;;22.28;65.20;100939.38;5011308;28;20498;-93
2022/07/25 00:14:15;;;;;;;8.15;6.95;;;;;;;22.26;65.20;100944.09;5011536;28;20084;-92
2022/07/25 00:16:41;;;;;;;7.60;6.57;;;;;;;22.28;65.02;100941.22;5007488;28;20559;-92
2022/07/25 00:19:13;;;;;;;8.93;6.78;;;;;;;22.23;64.92;100933.75;4992340;28;20030;-93
2022/07/25 00:21:38;;;;;;;9.20;6.70;;;;;;;22.22;64.56;100932.09;4992507;28;20081;-93
2022/07/25 00:24:04;;;;;;;9.07;7.05;;;;;;;22.22;65.13;100932.09;4992931;28;20023;-93
2022/07/25 00:26:31;;;;;;;11.57;7.57;;;;;;;22.21;64.79;100927.75;4991770;28;20061;-93
2022/07/25 00:29:00;;;;;;;8.70;7.47;;;;;;;22.14;65.33;100930.34;5004912;28;20056;-93
2022/07/25 00:31:25;;;;;;;9.10;7.30;;;;;;;22.13;64.96;100925.19;5010697;28;20038;-93
2022/07/25 00:33:51;;;;;;;9.13;7.00;;;;;;;22.13;64.92;100923.34;5012658;28;20022;-93
2022/07/25 00:36:16;;;;;;;9.02;7.00;;;;;;;22.15;64.85;100917.78;5011978;28;20410;-93
2022/07/25 00:38:41;;;;;;;7.82;6.93;;;;;;;22.12;64.62;100915.47;5006478;28;20511;-92
2022/07/25 00:41:12;;;;;;;10.13;7.07;;;;;;;22.07;64.87;100909.84;4991760;28;20515;-93
2022/07/25 00:43:41;;;;;;;7.93;6.93;;;;;;;22.06;64.76;100905.50;4990839;28;20198;-92
2022/07/25 00:46:07;;;;;;;7.70;6.90;;;;;;;22.05;64.95;100906.53;4994402;28;20049;-93
2022/07/25 00:48:32;;;;;;;7.75;6.68;;;;;;;22.02;65.29;100901.50;5011460;28;20542;-93
2022/07/25 00:50:58;;;;;;;7.70;6.95;;;;;;;21.98;64.92;100897.50;5012387;28;20052;-92
2022/07/25 00:53:24;;;;;;;7.82;7.00;;;;;;;21.96;64.92;100896.88;5012018;28;20072;-92
2022/07/25 00:55:51;;;;;;;7.50;6.70;;;;;;;21.93;64.98;100899.94;5010467;28;20395;-92
2022/07/25 00:58:17;;;;;;;12.15;7.10;;;;;;;21.91;64.77;100894.75;5012216;28;20061;-94
2022/07/25 01:00:43;;;;;;;7.78;7.07;;;;;;;21.85;64.85;100887.47;5011211;28;20052;-93
2022/07/25 01:03:12;;;;;;;8.40;6.80;;;;;;;21.85;64.89;100890.97;5009650;28;20476;-92
2022/07/25 01:05:37;;;;;;;10.13;7.10;;;;;;;21.83;64.84;100890.34;5009986;28;20060;-93
2022/07/25 01:08:06;;;;;;;7.65;6.95;;;;;;;21.83;64.59;100884.97;5017541;28;20026;-91
2022/07/25 01:10:32;;;;;;;9.75;6.75;;;;;;;21.86;64.34;100889.97;5024231;28;20424;-91
2022/07/25 01:12:57;;;;;;;8.07;7.15;;;;;;;21.83;64.78;100873.44;5016275;28;20029;-92
2022/07/25 01:15:23;;;;;;;7.65;6.85;;;;;;;21.84;64.18;100875.94;5011565;28;20022;-93
2022/07/25 01:17:55;;;;;;;8.82;7.13;;;;;;;21.83;64.13;100871.59;5010945;28;20025;-92
2022/07/25 01:20:25;;;;;;;9.13;6.50;;;;;;;21.85;64.01;100872.22;5008572;28;20071;-92
2022/07/25 01:22:54;;;;;;;8.07;6.78;;;;;;;21.80;64.07;100866.59;5011434;28;20554;-92
2022/07/25 01:25:20;;;;;;;11.10;7.00;;;;;;;21.78;64.02;100859.78;5011081;28;20034;-92
2022/07/25 01:27:47;;;;;;;8.55;6.60;;;;;;;21.78;63.67;100860.59;5012242;28;20025;-92
2022/07/25 01:30:14;;;;;;;8.30;6.53;;;;;;;21.77;63.58;100858.94;5009711;28;20124;-93
2022/07/25 01:32:52;;;;;;;7.38;6.40;;;;;;;21.79;63.91;100862.25;5010628;28;20105;-93
2022/07/25 01:35:18;;;;;;;8.95;6.38;;;;;;;21.78;63.70;100855.25;5009458;28;20036;-92
2022/07/25 01:37:43;;;;;;;7.15;6.43;;;;;;;21.77;63.53;100855.44;4994714;28;20030;-92
2022/07/25 01:40:16;;;;;;;7.45;6.75;;;;;;;21.76;63.47;100854.59;5006998;28;20049;-92
2022/07/25 01:42:42;;;;;;;;;;;;;;;21.85;62.84;100856.16;5010446;28;20556;-92
2022/07/25 01:45:14;;;;;;;7.43;6.60;;;;;;;21.72;63.33;100844.44;5008349;28;20004;-92
2022/07/25 01:47:42;;;;;;;9.07;6.90;;;;;;;21.70;63.51;100839.28;5005977;28;20026;-92
2022/07/25 01:50:11;;;;;;;10.93;6.95;;;;;;;21.75;63.15;100844.91;4990671;28;20034;-92
2022/07/25 01:52:38;;;;;;;7.88;6.53;;;;;;;21.71;63.39;100832.91;4989653;28;20069;-93
2022/07/25 01:55:04;;;;;;;7.55;6.40;;;;;;;21.69;63.07;100826.06;4991848;28;20026;-91
2022/07/25 01:57:30;;;;;;;7.32;6.60;;;;;;;21.71;62.97;100826.72;4990954;28;20117;-92
2022/07/25 01:59:55;;;;;;;7.35;6.47;;;;;;;21.68;62.95;100821.72;4990140;28;20125;-92
2022/07/25 02:02:21;;;;;;;8.98;6.68;;;;;;;21.67;62.94;100814.72;4996850;28;20072;-92
2022/07/25 02:04:46;;;;;;;8.75;6.60;;;;;;;21.65;63.32;100811.41;4994580;28;20024;-92
2022/07/25 02:07:12;;;;;;;7.28;6.57;;;;;;;21.64;62.96;100810.56;4993854;28;20590;-92
2022/07/25 02:09:38;;;;;;;8.35;6.72;;;;;;;21.62;62.89;100807.25;4994207;28;20503;-93
2022/07/25 02:12:06;;;;;;;8.90;6.80;;;;;;;21.62;62.88;100807.25;4994442;28;20050;-92
2022/07/25 02:14:33;;;;;;;7.10;6.30;;;;;;;21.63;63.04;100814.25;4993469;28;20030;-92
2022/07/25 02:17:05;;;;;;;9.45;6.47;;;;;;;21.65;62.81;100812.22;4994364;28;20069;-93
2022/07/25 02:19:31;;;;;;;;;;;;;;;21.77;62.28;100810.72;5005005;28;20057;-92
2022/07/25 02:21:56;;;;;;;7.45;6.10;;;;;;;21.63;62.80;100803.56;5014430;28;19956;-92
2022/07/25 02:24:22;;;;;;;7.00;6.30;;;;;;;21.62;62.98;100809.91;4995776;28;20030;-92
2022/07/25 02:26:50;;;;;;;6.90;6.13;;;;;;;21.62;62.44;100809.91;4995294;28;20476;-92
2022/07/25 02:29:19;;;;;;;8.73;6.20;;;;;;;21.61;62.68;100808.22;4993037;28;20101;-92
2022/07/25 02:31:44;;;;;;;9.05;6.97;;;;;;;21.63;62.72;100803.56;4993964;28;20058;-92
2022/07/25 02:34:10;;;;;;;7.63;6.50;;;;;;;21.58;62.92;100795.22;4994535;28;20049;-92
2022/07/25 02:36:38;;;;;;;7.18;6.47;;;;;;;21.57;63.17;100788.19;4998598;28;20033;-93
2022/07/25 02:39:04;;;;;;;8.25;6.78;;;;;;;21.55;62.88;100798.28;5000510;28;20518;-93
2022/07/25 02:41:30;;;;;;;8.43;6.57;;;;;;;21.53;62.54;100786.91;4992471;28;20018;-93
2022/07/25 02:43:59;;;;;;;8.93;6.20;;;;;;;21.50;62.77;100776.56;4993129;28;20076;-93
2022/07/25 02:46:25;;;;;;;9.82;6.45;;;;;;;21.50;62.55;100776.56;4992787;28;20033;-93
2022/07/25 02:48:53;;;;;;;7.32;6.45;;;;;;;21.46;62.98;100780.66;5005681;28;20112;-93
2022/07/25 02:51:19;;;;;;;7.20;6.05;;;;;;;21.48;62.42;100779.44;5011987;28;20056;-92
2022/07/25 02:53:44;;;;;;;6.95;5.97;;;;;;;21.44;62.78;100774.66;5012612;28;20057;-92
2022/07/25 02:56:19;;;;;;;7.70;6.38;;;;;;;21.44;62.58;100777.31;5011061;28;20033;-93
2022/07/25 02:58:45;;;;;;;8.05;6.40;;;;;;;21.43;62.83;100783.69;5013978;28;20052;-93
2022/07/25 03:01:11;;;;;;;7.68;6.35;;;;;;;21.40;63.04;100776.03;5012502;28;20022;-92
2022/07/25 03:03:36;;;;;;;7.40;6.47;;;;;;;21.41;62.83;100780.38;4995962;28;20038;-92
2022/07/25 03:06:02;;;;;;;6.90;6.22;;;;;;;21.38;62.91;100780.75;4992706;28;20029;-93
2022/07/25 03:08:27;;;;;;;7.72;6.47;;;;;;;21.34;62.79;100760.72;5006483;28;20505;-93
2022/07/25 03:10:53;;;;;;;7.00;6.30;;;;;;;21.34;62.48;100758.06;5003298;28;20535;-92
2022/07/25 03:13:19;;;;;;;7.10;6.32;;;;;;;21.35;62.47;100757.88;4992891;28;20030;-92
2022/07/25 03:15:45;;;;;;;8.05;6.30;;;;;;;21.34;62.70;100755.38;4993233;28;20030;-92
2022/07/25 03:18:10;;;;;;;8.70;6.53;;;;;;;21.33;62.42;100740.34;4993088;28;20038;-92
2022/07/25 03:20:48;;;;;;;9.70;6.20;;;;;;;21.34;62.03;100747.34;4993741;28;20033;-93
2022/07/25 03:23:14;;;;;;;6.88;6.10;;;;;;;21.31;62.36;100750.41;4991972;28;20129;-92
2022/07/25 03:25:40;;;;;;;8.82;6.28;;;;;;;21.31;62.24;100753.91;5001116;28;20109;-92
2022/07/25 03:28:06;;;;;;;9.80;6.63;;;;;;;21.34;62.16;100753.53;5001275;28;20026;-92
2022/07/25 03:30:31;;;;;;;6.97;6.28;;;;;;;21.27;62.12;100740.06;5011165;28;20053;-93
2022/07/25 03:32:57;;;;;;;6.97;6.38;;;;;;;21.29;62.55;100747.06;5011851;28;20026;-92
2022/07/25 03:35:24;;;;;;;11.70;6.63;;;;;;;21.30;62.32;100741.53;5013549;28;20030;-92
2022/07/25 03:37:50;;;;;;;7.80;5.95;;;;;;;21.32;62.36;100752.06;4996376;28;20033;-92
2022/07/25 03:40:16;;;;;;;9.52;6.30;;;;;;;21.29;62.25;100753.25;4993681;28;20557;-93
2022/07/25 03:42:42;;;;;;;9.23;6.18;;;;;;;21.27;62.46;100750.78;5011800;28;20414;-92
2022/07/25 03:45:11;;;;;;;7.30;6.38;;;;;;;21.27;62.39;100749.94;5013403;28;20033;-93
2022/07/25 03:47:37;;;;;;;7.35;6.65;;;;;;;21.17;62.96;100755.50;5013162;28;20026;-92
2022/07/25 03:50:06;;;;;;;10.25;6.53;;;;;;;21.15;62.71;100754.88;5012505;28;20029;-93
2022/07/25 03:52:32;;;;;;;8.32;7.15;;;;;;;21.13;62.89;100759.56;5012246;28;20583;-93
2022/07/25 03:54:57;;;;;;;9.00;6.78;;;;;;;21.10;63.43;100746.56;5012643;28;20512;-93
2022/07/25 03:57:23;;;;;;;7.43;6.72;;;;;;;21.10;63.97;100748.41;5012705;28;20112;-92
2022/07/25 03:59:49;;;;;;;10.02;7.35;;;;;;;21.06;63.85;100741.78;4993340;28;20121;-92
2022/07/25 04:02:18;;;;;;;7.47;6.75;;;;;;;21.03;64.37;100731.44;5004995;28;20169;-92
2022/07/25 04:04:43;;;;;;;8.70;6.43;;;;;;;20.97;64.87;100733.00;5012746;28;20101;-92
2022/07/25 04:07:12;;;;;;;9.52;6.82;;;;;;;21.01;64.21;100738.81;5010625;28;20169;-92
2022/07/25 04:09:37;;;;;;;8.50;7.05;;;;;;;20.95;64.72;100732.38;5011261;28;20278;-92
2022/07/25 04:12:03;;;;;;;8.20;7.18;;;;;;;20.96;64.57;100731.34;5011540;28;20080;-93
2022/07/25 04:14:29;;;;;;;7.95;7.07;;;;;;;20.91;64.61;100729.22;5010588;28;20044;-92
2022/07/25 04:16:57;;;;;;;7.50;6.80;;;;;;;20.92;64.44;100730.91;5009667;28;20034;-92
2022/07/25 04:19:23;;;;;;;7.47;6.78;;;;;;;20.91;64.57;100729.22;5010895;28;20026;-92
2022/07/25 04:21:49;;;;;;;11.32;7.50;;;;;;;20.89;64.24;100725.09;5010881;28;20036;-93
2022/07/25 04:24:15;;;;;;;8.85;7.63;;;;;;;20.89;64.73;100725.09;5012014;28;20026;-92
2022/07/25 04:26:40;;;;;;;9.73;7.28;;;;;;;20.92;64.75;100730.91;5011115;28;20510;-92
2022/07/25 04:29:16;;;;;;;9.63;7.15;;;;;;;20.93;64.66;100731.72;5010469;28;20416;-93
2022/07/25 04:31:48;;;;;;;9.27;6.50;;;;;;;20.96;65.10;100736.69;5003613;28;20050;-92
2022/07/25 04:34:17;;;;;;;13.27;7.25;;;;;;;20.91;64.69;100734.59;5002967;28;20172;-92
2022/07/25 04:36:45;;;;;;;11.70;7.57;;;;;;;20.83;64.96;100731.16;4998203;28;20018;-92
2022/07/25 04:39:11;;;;;;;8.13;7.32;;;;;;;20.90;64.68;100742.78;5011381;28;20475;-92
2022/07/25 04:41:37;;;;;;;11.05;7.47;;;;;;;20.90;64.68;100740.13;5009139;28;20472;-92
2022/07/25 04:44:03;;;;;;;8.00;7.05;;;;;;;20.91;64.68;100739.94;4992428;28;20030;-92
2022/07/25 04:46:28;;;;;;;9.05;7.40;;;;;;;20.92;64.72;100724.72;4992653;28;20030;-92
2022/07/25 04:49:03;;;;;;;8.75;7.25;;;;;;;20.91;65.03;100725.72;4992808;28;20038;-92
2022/07/25 04:51:31;;;;;;;11.18;7.28;;;;;;;20.97;64.92;100727.66;5007618;28;20034;-93
2022/07/25 04:54:00;;;;;;;9.20;7.30;;;;;;;20.93;65.35;100721.03;4991355;28;20022;-92
2022/07/25 04:56:32;;;;;;;9.00;7.07;;;;;;;20.95;64.78;100725.16;4990343;28;20057;-91
2022/07/25 04:58:57;;;;;;;7.80;7.00;;;;;;;20.98;64.70;100723.97;4990725;28;20377;-91
2022/07/25 05:01:23;;;;;;;13.10;7.20;;;;;;;20.98;64.81;100723.97;4991425;28;20030;-91
2022/07/25 05:03:51;;;;;;;10.50;7.15;;;;;;;20.97;65.36;100735.69;4990270;28;20424;-91
2022/07/25 05:06:26;;;;;;;10.52;7.72;;;;;;;20.97;65.00;100733.00;4994293;28;20866;-91
2022/07/25 05:08:57;;;;;;;10.88;7.28;;;;;;;21.00;65.39;100729.97;5009545;28;20484;-91
2022/07/25 05:11:26;;;;;;;9.77;7.22;;;;;;;21.07;65.34;100724.72;5010925;28;20116;-92
2022/07/25 05:13:55;;;;;;;11.68;7.50;;;;;;;21.06;65.24;100728.41;5012238;28;20054;-91
2022/07/25 05:16:27;;;;;;;8.98;7.57;;;;;;;21.07;65.35;100730.88;5009464;28;20057;-91
2022/07/25 05:18:55;;;;;;;11.95;7.45;;;;;;;21.06;65.18;100734.56;5010473;28;20040;-91
2022/07/25 05:21:20;;;;;;;9.95;7.50;;;;;;;21.07;65.78;100733.56;5010365;28;20026;-90
2022/07/25 05:23:49;;;;;;;8.88;7.22;;;;;;;21.09;66.03;100736.88;5009672;28;20053;-91
2022/07/25 05:26:14;;;;;;;7.38;6.63;;;;;;;21.14;65.83;100729.13;5009828;28;20040;-91
2022/07/25 05:28:45;;;;;;;8.85;7.47;;;;;;;21.19;65.64;100731.25;4997931;28;20030;-91
2022/07/25 05:31:11;;;;;;;9.20;7.50;;;;;;;21.24;65.69;100729.72;4997159;28;20053;-91
2022/07/25 05:33:36;;;;;;;8.40;7.60;;;;;;;21.25;65.57;100741.25;5011980;28;20021;-91
2022/07/25 05:36:03;;;;;;;9.23;7.65;;;;;;;21.33;65.77;100726.94;5010141;28;20057;-91
2022/07/25 05:38:32;;;;;;;9.32;7.65;;;;;;;21.34;65.90;100742.00;4990556;28;20031;-91
2022/07/25 05:40:58;;;;;;;10.45;7.70;;;;;;;21.32;65.56;100738.66;4991565;28;20030;-91
2022/07/25 05:43:26;;;;;;;10.05;7.60;;;;;;;21.34;65.47;100733.97;5005708;28;20018;-91
2022/07/25 05:46:03;;;;;;;12.40;8.02;;;;;;;21.42;65.70;100737.34;5011127;28;20388;-91
2022/07/25 05:48:42;;;;;;;9.10;7.97;;;;;;;21.42;65.84;100737.34;5011006;28;20063;-92
2022/07/25 05:51:11;;;;;;;10.50;7.93;;;;;;;21.46;65.89;100727.94;5011162;28;20036;-91
2022/07/25 05:53:43;;;;;;;8.82;7.43;;;;;;;21.54;66.19;100743.06;5011498;28;20053;-91
2022/07/25 05:56:18;;;;;;;11.60;7.88;;;;;;;21.51;65.70;100741.59;5010115;28;20037;-91
2022/07/25 05:58:44;;;;;;;9.68;8.20;;;;;;;21.49;65.47;100748.16;5009154;28;20092;-92
2022/07/25 06:01:17;;;;;;;9.75;7.85;;;;;;;21.49;65.96;100748.16;5011738;28;20022;-91
2022/07/25 06:03:42;;;;;;;10.85;7.65;;;;;;;21.51;66.01;100746.94;5009678;28;20038;-91
2022/07/25 06:06:14;;;;;;;10.55;7.75;;;;;;;21.57;65.24;100758.75;5010542;28;20523;-93
2022/07/25 06:08:43;;;;;;;16.35;7.85;;;;;;;21.51;64.93;100754.16;5009566;28;20026;-90
2022/07/25 06:11:14;;;;;;;10.20;7.68;;;;;;;21.52;64.17;100755.81;5003460;28;20507;-92
2022/07/25 06:13:39;;;;;;;11.98;7.85;;;;;;;21.55;64.69;100752.75;5008538;28;20022;-91
2022/07/25 06:16:05;;;;;;;11.25;7.47;;;;;;;21.55;65.22;100747.41;5000145;28;20027;-91
2022/07/25 06:18:30;;;;;;;12.40;7.43;;;;;;;21.52;64.48;100751.28;5004655;28;20388;-91
2022/07/25 06:20:56;;;;;;;8.02;6.90;;;;;;;21.54;65.08;100753.78;4994480;28;20026;-92
2022/07/25 06:23:24;;;;;;;8.23;6.95;;;;;;;21.58;65.39;100763.09;4994998;28;20037;-92
2022/07/25 06:25:49;;;;;;;11.10;7.28;;;;;;;21.53;64.29;100750.25;4999327;28;20046;-92
2022/07/25 06:28:15;;;;;;;8.23;6.95;;;;;;;21.57;64.37;100762.25;5004092;28;20136;-92
2022/07/25 06:38:52;;;;;;;9.73;6.40;;;;;;;21.64;64.10;100772.25;4945803;29;20045;-93
2022/07/25 06:41:18;;;;;;;9.30;6.82;;;;;;;21.66;64.80;100772.88;4959729;28;20047;-89
2022/07/25 06:43:43;;;;;;;10.15;6.95;;;;;;;21.67;64.57;100772.69;4953090;28;20035;-78
2022/07/25 06:46:11;;;;;;;8.35;6.93;;;;;;;21.73;63.71;100779.16;4951433;28;20034;-88
2022/07/25 06:48:37;;;;;;;12.35;7.05;;;;;;;21.75;64.42;100772.59;4951000;28;20029;-79
2022/07/25 06:51:03;;;;;;;8.82;7.03;;;;;;;21.79;64.03;100776.53;4954992;28;20026;-83
2022/07/25 06:53:28;;;;;;;11.48;7.00;;;;;;;21.85;64.23;100778.47;4955378;28;20370;-80
2022/07/25 06:55:54;;;;;;;8.30;6.63;;;;;;;21.79;64.66;100773.88;4954729;28;20015;-88
2022/07/25 06:58:19;;;;;;;8.30;6.45;;;;;;;21.88;64.76;100769.22;4954255;28;20027;-79
2022/07/25 07:00:45;;;;;;;9.43;6.07;;;;;;;21.92;64.76;100775.84;4954688;28;20028;-88
2022/07/25 07:03:10;;;;;;;12.50;6.38;;;;;;;21.90;65.27;100762.66;4953169;28;20102;-79
2022/07/25 07:05:38;;;;;;;9.32;5.78;;;;;;;21.86;65.50;100766.72;4953200;29;20034;-88
2022/07/25 07:08:04;;;;;;;10.70;5.85;;;;;;;21.90;65.68;100768.00;4953852;29;20038;-88
2022/07/25 07:10:30;;;;;;;8.45;5.03;;;;;;;21.94;64.92;100772.97;4946889;28;20441;-79
2022/07/25 07:13:14;;;;;;;8.57;4.57;;;;;;;21.95;64.85;100777.31;4954350;28;20058;-89
2022/07/25 07:15:45;;;;;;;6.80;4.38;;;;;;;21.89;65.96;100766.34;4953993;28;20035;-88
2022/07/25 07:18:11;;;;;;;9.63;4.53;;;;;;;22.01;65.30;100763.16;4954084;28;20079;-89
2022/07/25 07:20:36;;;;;;;9.18;4.13;;;;;;;22.16;65.18;100772.03;4954437;28;20031;-88
2022/07/25 07:23:02;;;;;;;6.80;4.32;;;;;;;22.21;64.90;100761.56;4954165;28;20035;-89
2022/07/25 07:25:27;;;;;;;8.68;4.07;;;;;;;22.30;64.60;100765.78;4952423;28;20417;-78
2022/07/25 07:27:52;;;;;;;8.30;3.90;;;;;;;22.29;64.74;100766.78;4937997;28;20110;-78
2022/07/25 07:30:18;;;;;;;5.65;3.72;;;;;;;22.36;64.60;100769.53;4936015;29;20027;-78
2022/07/25 07:32:44;;;;;;;10.15;3.60;;;;;;;22.38;64.89;100776.34;4954780;28;20501;-89
2022/07/25 07:35:11;;;;;;;9.07;3.85;;;;;;;22.40;65.07;100774.31;4954762;28;20109;-87
2022/07/25 07:37:36;;;;;;;9.07;3.50;;;;;;;22.39;65.15;100780.69;4953533;28;20140;-88
2022/07/25 07:40:03;;;;;;;7.25;3.00;;;;;;;22.33;65.19;100781.47;4953727;28;20516;-88
2022/07/25 07:42:44;;;;;;;5.97;2.97;;;;;;;22.37;65.98;100781.91;4952563;28;20034;-89
2022/07/25 07:45:17;;;;;;;8.18;3.10;;;;;;;22.29;66.59;100782.88;4952989;28;20030;-87
2022/07/25 07:47:48;;;;;;;6.20;2.40;;;;;;;22.44;66.38;100783.66;4953293;28;20027;-79
2022/07/25 07:50:16;;;;;;;7.47;2.30;;;;;;;22.64;65.82;100775.78;4954007;28;20038;-86
2022/07/25 07:52:42;;;;;;;4.95;2.20;;;;;;;23.24;64.50;100781.59;4950582;28;20532;-88
2022/07/25 07:57:55;;;;;;;7.45;2.00;;;;;;;23.84;63.11;100777.34;4943267;28;20042;-88
2022/07/25 08:00:22;;;;;;;5.75;2.20;;;;;;;23.85;62.58;100773.63;4944203;28;20023;-87
2022/07/25 08:02:50;;;;;;;5.00;2.10;;;;;;;23.75;62.65;100782.91;4941383;28;20039;-87
2022/07/25 08:05:22;;;;;;;4.78;1.58;;;;;;;23.82;62.67;100776.72;4947142;28;20110;-88
2022/07/25 08:07:50;;;;;;;5.65;2.00;;;;;;;23.79;63.38;100772.59;4948030;28;20019;-87
2022/07/25 08:10:22;;;;;;;7.70;1.90;;;;;;;23.84;63.31;100777.34;4953228;28;20027;-87
2022/07/25 08:12:48;;;;;;;8.70;2.17;;;;;;;24.18;62.89;100779.09;4952555;28;20389;-79
2022/07/25 08:15:14;;;;;;;4.43;2.00;;;;;;;24.34;62.67;100779.56;4953231;28;20031;-79
2022/07/25 08:17:40;;;;;;;5.88;1.80;;;;;;;24.52;62.07;100783.53;4937706;28;20039;-79
2022/07/25 08:20:07;;;;;;;5.38;1.58;;;;;;;24.46;61.58;100776.28;4951451;28;20042;-79
2022/07/25 08:22:37;;;;;;;4.93;1.55;;;;;;;24.50;61.63;100785.59;4943229;28;20046;-81
2022/07/25 08:25:03;;;;;;;6.28;1.77;;;;;;;24.83;61.07;100781.03;4947443;28;20023;-78
2022/07/25 08:27:29;;;;;;;5.53;1.80;;;;;;;24.86;60.30;100777.94;4944332;28;20200;-87
2022/07/25 08:29:54;;;;;;;6.30;1.80;;;;;;;24.90;60.63;100776.47;4939620;28;20437;-87
2022/07/25 08:32:19;;;;;;;6.78;1.50;;;;;;;24.85;60.64;100781.66;4949153;28;20031;-78
2022/07/25 08:34:45;;;;;;;5.78;1.80;;;;;;;24.77;60.93;100787.22;4940515;29;20031;-77
2022/07/25 08:37:10;;;;;;;4.57;1.50;;;;;;;24.84;59.88;100789.94;4939207;28;20038;-77
2022/07/25 08:39:35;;;;;;;5.78;1.50;;;;;;;25.09;59.50;100792.84;4941877;28;20055;-76
2022/07/25 08:42:02;;;;;;;4.65;1.20;;;;;;;25.57;58.97;100787.94;4947010;28;20027;-76
2022/07/25 08:44:33;;;;;;;5.15;1.60;;;;;;;25.78;58.33;100789.53;4949117;28;20028;-84
2022/07/25 08:46:59;;;;;;;6.32;1.67;;;;;;;25.82;57.96;100783.50;4939199;29;20035;-85
2022/07/25 08:49:26;;;;;;;5.90;1.63;;;;;;;25.85;58.25;100782.25;4941522;28;20166;-85
2022/07/25 08:51:52;;;;;;;6.20;1.80;;;;;;;25.86;57.63;100784.72;4946623;28;20089;-84
2022/07/25 08:54:18;;;;;;;4.35;1.60;;;;;;;26.07;57.25;100780.06;4935743;29;20102;-76
2022/07/25 08:56:44;;;;;;;4.45;1.67;;;;;;;26.20;57.03;100790.75;4947915;28;20059;-86
2022/07/25 08:59:09;;;;;;;5.30;1.75;;;;;;;26.15;57.46;100785.19;4939439;28;20027;-76
2022/07/25 09:01:37;;;;;;;4.07;1.52;;;;;;;25.86;57.56;100789.28;4951259;28;20034;-86
2022/07/25 09:04:02;;;;;;;8.30;1.63;;;;;;;25.70;56.95;100795.19;4950242;29;20019;-85
2022/07/25 09:06:28;;;;;;;4.95;1.80;;;;;;;25.53;57.63;100795.63;4951122;28;20309;-85
2022/07/25 09:08:56;;;;;;;6.80;1.88;;;;;;;25.56;58.20;100789.78;4950410;28;20027;-76
2022/07/25 09:11:36;;;;;;;9.73;1.70;;;;;;;25.98;59.20;100792.94;4949882;28;20042;-76
2022/07/25 09:14:06;;;;;;;7.00;1.77;;;;;;;26.29;58.11;100788.63;4951868;28;20528;-86
2022/07/25 09:16:38;;;;;;;7.20;1.85;;;;;;;26.63;56.58;100798.16;4948501;28;20034;-76
2022/07/25 09:19:11;;;;;;;5.95;1.75;;;;;;;26.87;56.26;100791.94;4944511;28;20034;-75
2022/07/25 09:21:38;;;;;;;6.85;1.90;;;;;;;26.83;54.88;100798.84;4943873;29;20397;-86
2022/07/25 09:24:15;;;;;;;6.57;1.65;;;;;;;26.76;55.38;100796.19;4939784;29;20027;-76
2022/07/25 09:26:44;;;;;;;5.35;1.73;;;;;;;26.78;54.07;100804.88;4936124;29;20042;-76
2022/07/25 09:29:19;;;;;;;5.60;1.67;;;;;;;27.00;53.78;100804.53;4942820;28;20085;-84
2022/07/25 09:31:44;;;;;;;7.70;1.60;;;;;;;26.95;53.05;100809.75;4952347;28;20030;-75
2022/07/25 09:34:11;;;;;;;4.70;1.58;;;;;;;26.62;52.47;100823.50;4948928;28;20472;-75
2022/07/25 09:36:57;;;;;;;6.00;2.00;;;;;;;26.48;52.41;100830.88;4946012;28;20032;-75
2022/07/25 09:39:43;;;;;;;6.38;2.15;;;;;;;26.72;53.04;100835.47;4939697;28;20485;-82
2022/07/25 09:42:20;;;;;;;7.55;2.00;;;;;;;26.80;53.04;100834.34;4942077;29;20075;-82
2022/07/25 09:45:10;;;;;;;5.60;1.70;;;;;;;26.83;53.09;100829.38;4948135;28;20035;-83
2022/07/25 09:47:36;;;;;;;6.68;2.03;;;;;;;26.85;52.80;100831.84;4944982;28;20501;-83
2022/07/25 09:50:03;;;;;;;8.45;2.45;;;;;;;26.68;52.78;100825.31;4947740;29;20027;-83
2022/07/25 09:52:29;;;;;;;5.80;2.33;;;;;;;26.66;52.33;100824.72;4935030;28;20031;-75
2022/07/25 09:54:54;;;;;;;5.72;2.10;;;;;;;26.70;52.97;100834.84;4946690;28;20035;-83
2022/07/25 09:57:22;;;;;;;6.63;2.05;;;;;;;26.80;51.41;100834.34;4940643;29;20136;-84
2022/07/25 09:59:47;;;;;;;5.20;1.80;;;;;;;26.96;51.66;100835.69;4950458;28;20035;-84
2022/07/25 10:02:16;;;;;;;6.82;2.20;;;;;;;27.14;52.27;100827.66;4948882;28;20397;-83
2022/07/25 10:04:54;;;;;;;6.47;1.98;;;;;;;27.35;52.06;100835.34;4941229;28;20153;-83
2022/07/25 10:07:21;;;;;;;8.80;2.05;;;;;;;27.33;50.86;100832.03;4951492;28;20030;-82
2022/07/25 10:09:49;;;;;;;7.20;1.90;;;;;;;27.50;49.31;100843.06;4950637;28;20074;-83
2022/07/25 10:12:19;;;;;;;4.53;1.92;;;;;;;27.36;50.49;100845.09;4949853;28;20023;-74
2022/07/25 10:15:11;;;;;;;8.48;2.13;;;;;;;27.40;51.17;100842.78;4942764;28;20037;-83
2022/07/25 10:17:39;;;;;;;6.83;1.97;;;;;;;27.37;50.58;100844.06;4943375;28;20032;-74
2022/07/25 10:20:06;;;;;;;7.10;1.75;;;;;;;27.24;49.09;100836.09;4951320;28;20673;-84
2022/07/25 10:26:15;;;;;;;6.93;1.80;;;;;;;27.85;49.07;100824.41;5102846;23;20115;-79
2022/07/25 10:28:48;;;;;;;6.15;1.70;;;;;;;28.04;48.26;100828.72;5000192;28;20030;-80
2022/07/25 10:31:25;;;;;;;5.00;2.13;;;;;;;28.16;48.55;100828.78;5004500;28;20105;-81
2022/07/25 10:33:54;;;;;;;4.10;1.75;;;;;;;28.19;46.79;100822.06;5003022;28;20072;-81
2022/07/25 10:36:23;;;;;;;4.32;1.65;;;;;;;28.08;45.81;100831.81;5002466;28;20030;-80
2022/07/25 10:38:56;;;;;;;3.50;1.80;;;;;;;28.18;46.81;100837.50;5009466;28;20022;-82
2022/07/25 10:41:27;;;;;;;4.43;1.92;;;;;;;28.03;45.49;100837.91;5000959;28;20025;-80
2022/07/25 10:43:56;;;;;;;3.58;1.55;;;;;;;28.05;47.17;100838.50;5006331;28;20022;-81
2022/07/25 10:46:25;;;;;;;6.53;1.90;;;;;;;27.92;46.56;100840.53;5004153;28;20038;-80
2022/07/25 10:49:03;;;;;;;6.50;2.03;;;;;;;27.90;46.73;100850.75;4996987;28;20033;-82
2022/07/25 10:51:32;;;;;;;4.63;1.75;;;;;;;27.98;46.97;100843.16;4999311;28;20347;-82
2022/07/25 10:53:58;;;;;;;5.50;2.08;;;;;;;28.31;45.77;100850.03;4995670;28;20112;-81
2022/07/25 10:56:26;;;;;;;6.55;2.15;;;;;;;28.31;44.89;100858.16;4999865;28;20118;-80
2022/07/25 10:58:57;;;;;;;5.30;2.03;;;;;;;28.24;45.63;100852.84;5001152;28;20030;-81
2022/07/25 11:01:26;;;;;;;5.32;1.92;;;;;;;28.07;46.29;100858.03;5001341;28;20021;-80
2022/07/25 11:03:54;;;;;;;3.65;1.92;;;;;;;27.85;46.34;100859.56;4999536;28;20022;-81
2022/07/25 11:06:41;;;;;;;6.97;1.92;;;;;;;27.76;47.37;100871.72;4992629;28;20088;-81
2022/07/25 11:09:22;;;;;;;6.45;1.90;;;;;;;27.61;47.50;100860.41;4992630;28;20117;-80
2022/07/25 11:11:53;;;;;;;7.47;2.28;;;;;;;27.39;46.09;100860.88;5001411;28;20038;-81
2022/07/25 11:14:32;;;;;;;4.57;2.65;;;;;;;27.18;46.87;100863.97;4998022;28;20018;-81
2022/07/25 11:17:13;;;;;;;4.07;2.58;;;;;;;27.16;47.08;100872.31;5007921;28;20159;-81
2022/07/25 11:19:40;;;;;;;5.78;2.97;;;;;;;27.00;48.06;100867.47;4993505;28;20027;-81
2022/07/25 11:22:07;;;;;;;5.38;2.63;;;;;;;27.00;47.95;100874.75;4991921;28;20061;-82
2022/07/25 11:24:41;;;;;;;5.35;2.88;;;;;;;27.04;48.28;100873.25;4992948;28;20045;-83
2022/07/25 11:27:10;;;;;;;9.35;2.80;;;;;;;26.80;48.10;100877.56;4999760;28;20065;-82
2022/07/25 11:29:37;;;;;;;5.75;2.67;;;;;;;26.72;48.82;100875.97;4992991;28;20534;-82
2022/07/25 11:32:05;;;;;;;9.38;3.30;;;;;;;26.55;48.50;100874.84;4996082;28;20029;-81
2022/07/25 11:34:40;;;;;;;7.00;3.20;;;;;;;26.34;49.15;100875.16;5000317;28;20025;-82
2022/07/25 11:37:07;;;;;;;7.60;3.10;;;;;;;26.25;49.88;100885.34;5007403;28;20022;-81
2022/07/25 11:39:36;;;;;;;9.45;3.03;;;;;;;26.26;51.72;100888.88;4995770;28;20698;-81
2022/07/25 11:42:05;;;;;;;4.97;2.90;;;;;;;26.28;50.94;100884.91;4999710;28;20061;-83
2022/07/25 11:44:46;;;;;;;7.20;3.22;;;;;;;26.20;50.25;100887.88;4995544;28;20425;-82